South Walpole, Massachusetts
Current Conditions -  °F | °C
As of 3:53 AM on Saturday 22 Nov 2014 (Local Time) from KOWD Reporting Station
Clear Clear  
Wind Chill: 16°   Ceiling: Unl
Heat Index: 23°   Visibility: 10mi
Dew Point: 11°   Wind: 6mph
Humidity: 60%   Direction: 240°WSW
Pressure: 30.43"   Gusts: NA
Location:  42.1°N, 71.26°W
Report Text: KOWD 220853Z AUTO 24005KT 10SM CLR M05/M12 A3043 RMK AO2 SLP304 T10501117 58001
Loading
Personal Weather Stations






























Interactive Weather Map New forecast layout! Learn more

10-Day Weather Forecast

Advertisements
Track Severe Weather on mobile